createdAt,value
2022-10-26T00:01:11.321Z,97586.06
2022-10-26T00:03:40.374Z,97588.84
2022-10-26T00:06:14.116Z,97585.38
2022-10-26T00:08:41.749Z,97581.59
2022-10-26T00:11:10.235Z,97589.91
2022-10-26T00:13:38.205Z,97585.50
2022-10-26T00:16:12.437Z,97582.03
2022-10-26T00:18:39.673Z,97581.59
2022-10-26T00:21:08.493Z,97581.34
2022-10-26T00:23:35.917Z,97591.00
2022-10-26T00:26:03.593Z,97594.84
2022-10-26T00:28:30.983Z,97592.09
2022-10-26T00:31:13.167Z,97590.06
2022-10-26T00:33:40.516Z,97592.09
2022-10-26T00:36:09.586Z,97593.56
2022-10-26T00:38:37.240Z,97595.88
2022-10-26T00:41:04.763Z,97594.56
2022-10-26T00:43:32.048Z,97599.84
2022-10-26T00:46:00.270Z,97599.00
2022-10-26T00:48:33.394Z,97589.59
2022-10-26T00:51:03.620Z,97597.09
2022-10-26T00:53:32.094Z,97596.63
2022-10-26T00:55:59.258Z,97598.31
2022-10-26T00:58:27.049Z,97596.88
2022-10-26T01:00:54.157Z,97578.75
2022-10-26T01:03:25.623Z,97584.38
2022-10-26T01:05:55.750Z,97586.53
2022-10-26T01:08:24.368Z,97572.94
2022-10-26T01:10:52.468Z,97579.63
2022-10-26T01:13:20.294Z,97577.44
2022-10-26T01:16:08.194Z,97583.44
2022-10-26T01:18:50.150Z,97587.72
2022-10-26T01:21:41.664Z,97585.09
2022-10-26T01:24:11.926Z,97589.63
2022-10-26T01:27:09.126Z,97586.38
2022-10-26T01:29:58.174Z,97582.13
2022-10-26T01:32:39.541Z,97580.34
2022-10-26T01:35:23.806Z,97578.69
2022-10-26T01:38:04.526Z,97581.53
2022-10-26T01:40:38.375Z,97587.53
2022-10-26T01:43:09.782Z,97581.56
2022-10-26T01:45:41.306Z,97579.06
2022-10-26T01:48:14.415Z,97580.13
2022-10-26T01:50:43.379Z,97586.06
2022-10-26T01:53:14.668Z,97577.97
2022-10-26T01:55:50.222Z,97580.94
2022-10-26T01:58:50.444Z,97574.50
2022-10-26T02:01:30.568Z,97569.75
2022-10-26T02:04:16.046Z,97572.72
2022-10-26T02:06:53.639Z,97575.56
2022-10-26T02:09:45.221Z,97573.44
2022-10-26T02:12:28.802Z,97580.59
2022-10-26T02:15:11.703Z,97576.78
2022-10-26T02:17:49.686Z,97581.09
2022-10-26T02:20:27.216Z,97574.88
2022-10-26T02:22:56.813Z,97581.09
2022-10-26T02:25:31.744Z,97584.31
2022-10-26T02:28:07.766Z,97582.03
2022-10-26T02:30:36.703Z,97589.44
2022-10-26T02:33:06.023Z,97585.84
2022-10-26T02:35:36.960Z,97585.38
2022-10-26T02:38:09.259Z,97591.22
2022-10-26T02:40:37.598Z,97597.44
2022-10-26T02:43:12.939Z,97604.94
2022-10-26T02:45:47.276Z,97600.75
2022-10-26T02:48:15.941Z,97606.16
2022-10-26T02:51:01.288Z,97617.47
2022-10-26T02:53:41.774Z,97601.72
2022-10-26T02:56:18.420Z,97614.84
2022-10-26T02:58:51.186Z,97614.47
2022-10-26T03:01:18.746Z,97614.34
2022-10-26T03:03:46.866Z,97619.72
2022-10-26T03:06:21.596Z,97621.91
2022-10-26T03:08:48.931Z,97644.78
2022-10-26T03:11:16.025Z,97635.03
2022-10-26T03:13:43.336Z,97639.16
2022-10-26T03:16:10.996Z,97641.09
2022-10-26T03:18:37.865Z,97634.06
2022-10-26T03:21:05.043Z,97642.63
2022-10-26T03:23:32.126Z,97635.00
2022-10-26T03:25:59.728Z,97635.94
2022-10-26T03:28:26.924Z,97637.88
2022-10-26T03:30:54.374Z,97645.16
2022-10-26T03:33:24.407Z,97645.38
2022-10-26T03:35:57.169Z,97642.88
2022-10-26T03:38:24.633Z,97649.06
2022-10-26T03:40:51.770Z,97652.28
2022-10-26T03:43:19.182Z,97649.06
2022-10-26T03:45:46.456Z,97643.34
2022-10-26T03:48:13.621Z,97654.09
2022-10-26T03:50:40.549Z,97655.50
2022-10-26T03:53:08.243Z,97656.00
2022-10-26T03:55:35.231Z,97658.97
2022-10-26T03:58:02.837Z,97663.41
2022-10-26T04:00:29.940Z,97663.16
2022-10-26T04:02:58.909Z,97660.06
2022-10-26T04:05:28.301Z,97660.53
2022-10-26T04:07:57.137Z,97669.38
2022-10-26T04:10:26.171Z,97669.34
2022-10-26T04:12:54.615Z,97674.06
2022-10-26T04:15:22.819Z,97677.44
2022-10-26T04:17:56.964Z,97687.19
2022-10-26T04:20:24.575Z,97686.13
2022-10-26T04:22:59.446Z,97681.50
2022-10-26T04:25:28.805Z,97685.09
2022-10-26T04:27:59.113Z,97683.03
2022-10-26T04:30:26.912Z,97681.69
2022-10-26T04:32:53.917Z,97675.03
2022-10-26T04:35:21.187Z,97678.28
2022-10-26T04:37:48.193Z,97683.66
2022-10-26T04:40:15.491Z,97681.94
2022-10-26T04:42:46.624Z,97691.25
2022-10-26T04:45:16.350Z,97694.50
2022-10-26T04:47:43.812Z,97700.31
2022-10-26T04:50:12.920Z,97704.03
2022-10-26T04:52:40.522Z,97702.00
2022-10-26T04:55:08.162Z,97702.84
2022-10-26T04:57:35.607Z,97708.31
2022-10-26T05:00:04.883Z,97707.09
2022-10-26T05:02:32.079Z,97715.94
2022-10-26T05:04:59.266Z,97718.88
2022-10-26T05:07:26.555Z,97719.63
2022-10-26T05:09:53.532Z,97721.88
2022-10-26T05:12:20.836Z,97726.00
2022-10-26T05:14:47.884Z,97724.00
2022-10-26T05:17:14.889Z,97727.13
2022-10-26T05:19:42.171Z,97736.94
2022-10-26T05:22:09.150Z,97730.13
2022-10-26T05:24:36.300Z,97735.97
2022-10-26T05:27:03.564Z,97738.38
2022-10-26T05:29:30.557Z,97733.91
2022-10-26T05:31:57.603Z,97736.53
2022-10-26T05:34:24.823Z,97727.69
2022-10-26T05:36:54.084Z,97736.31
2022-10-26T05:39:21.995Z,97743.91
2022-10-26T05:41:49.072Z,97739.41
2022-10-26T05:44:16.156Z,97745.41
2022-10-26T05:46:43.549Z,97746.72
2022-10-26T05:49:10.856Z,97753.78
2022-10-26T05:51:39.954Z,97753.34
2022-10-26T05:54:10.298Z,97752.84
2022-10-26T05:59:25.495Z,97754.22
2022-10-26T06:02:26.950Z,97752.06
2022-10-26T06:04:57.129Z,97764.66
2022-10-26T06:07:24.944Z,97762.97
2022-10-26T06:09:52.120Z,97763.25
2022-10-26T06:12:19.989Z,97764.19
2022-10-26T06:14:47.784Z,97758.00
2022-10-26T06:17:42.600Z,97759.66
2022-10-26T06:20:10.008Z,97758.94
2022-10-26T06:22:54.833Z,97757.47
2022-10-26T06:25:41.966Z,97772.38
2022-10-26T06:28:34.609Z,97772.41
2022-10-26T06:31:01.956Z,97762.69
2022-10-26T06:33:30.714Z,97775.69
2022-10-26T06:36:08.941Z,97769.03
2022-10-26T06:38:37.178Z,97769.56
2022-10-26T06:41:05.082Z,97771.44
2022-10-26T06:43:32.944Z,97766.38
2022-10-26T06:46:15.176Z,97774.63
2022-10-26T06:48:50.222Z,97775.59
2022-10-26T06:51:18.145Z,97775.56
2022-10-26T06:54:05.567Z,97774.66
2022-10-26T06:56:32.896Z,97774.81
2022-10-26T06:59:08.651Z,97771.13
2022-10-26T07:01:35.676Z,97767.13
2022-10-26T07:04:02.777Z,97767.41
2022-10-26T07:06:32.414Z,97766.25
2022-10-26T07:09:01.420Z,97774.28
2022-10-26T07:11:28.745Z,97762.44
2022-10-26T07:13:55.936Z,97774.16
2022-10-26T07:16:23.661Z,97768.06
2022-10-26T07:18:51.033Z,97770.31
2022-10-26T07:21:18.052Z,97769.50
2022-10-26T07:23:45.284Z,97763.38
2022-10-26T07:26:12.350Z,97759.97
2022-10-26T07:28:39.352Z,97753.97
2022-10-26T07:31:06.797Z,97754.63
2022-10-26T07:33:35.881Z,97755.47
2022-10-26T07:36:08.904Z,97740.31
2022-10-26T07:38:35.875Z,97739.31
2022-10-26T07:41:03.842Z,97742.44
2022-10-26T07:43:30.713Z,97744.91
2022-10-26T07:45:57.992Z,97744.53
2022-10-26T07:48:24.973Z,97747.63
2022-10-26T07:50:51.941Z,97747.78
2022-10-26T07:53:20.473Z,97741.91
2022-10-26T07:55:58.968Z,97744.72
2022-10-26T07:58:27.556Z,97740.66
2022-10-26T08:00:55.214Z,97750.94
2022-10-26T08:03:22.487Z,97747.56
2022-10-26T08:05:51.864Z,97741.94
2022-10-26T08:08:18.762Z,97742.97
2022-10-26T08:10:46.783Z,97752.25
2022-10-26T08:13:14.700Z,97741.81
2022-10-26T08:15:42.144Z,97739.97
2022-10-26T08:18:09.561Z,97733.06
2022-10-26T08:20:36.768Z,97735.34
2022-10-26T08:23:06.525Z,97731.28
2022-10-26T08:25:33.846Z,97739.47
2022-10-26T08:28:04.653Z,97731.78
2022-10-26T08:30:33.175Z,97741.72
2022-10-26T08:33:05.340Z,97731.78
2022-10-26T08:35:33.508Z,97723.69
2022-10-26T08:38:00.822Z,97738.06
2022-10-26T08:40:32.218Z,97732.41
2022-10-26T08:43:05.930Z,97724.66
2022-10-26T08:45:50.683Z,97728.88
2022-10-26T08:48:22.316Z,97733.16
2022-10-26T08:50:56.520Z,97734.81
2022-10-26T08:53:51.258Z,97735.63
2022-10-26T08:56:25.193Z,97727.72
2022-10-26T08:59:02.039Z,97731.31
2022-10-26T09:01:32.543Z,97731.47
2022-10-26T09:06:42.992Z,97732.66
2022-10-26T09:09:46.707Z,97734.47
2022-10-26T09:12:45.954Z,97735.56
2022-10-26T09:15:39.029Z,97735.69
2022-10-26T09:18:22.336Z,97734.78
2022-10-26T09:21:15.705Z,97733.00
2022-10-26T09:24:07.462Z,97729.81
2022-10-26T09:26:55.725Z,97741.31
2022-10-26T09:29:41.433Z,97733.00
2022-10-26T09:32:21.094Z,97725.75
2022-10-26T09:34:55.393Z,97718.00
2022-10-26T09:37:29.246Z,97726.63
2022-10-26T09:40:06.044Z,97727.94
2022-10-26T09:42:51.545Z,97731.50
2022-10-26T09:45:21.566Z,97733.88
2022-10-26T09:47:53.030Z,97727.72
2022-10-26T09:50:42.598Z,97730.19
2022-10-26T09:53:10.207Z,97723.84
2022-10-26T09:55:41.522Z,97720.28
2022-10-26T09:58:33.339Z,97719.47
2022-10-26T10:01:00.426Z,97717.06
2022-10-26T10:03:30.496Z,97708.38
2022-10-26T10:06:19.469Z,97714.63
2022-10-26T10:09:12.094Z,97702.44
2022-10-26T10:11:59.826Z,97703.31
2022-10-26T10:14:39.910Z,97691.16
2022-10-26T10:19:48.087Z,97692.53
2022-10-26T10:22:15.041Z,97689.94
2022-10-26T10:25:02.736Z,97685.63
2022-10-26T10:27:33.593Z,97683.53
2022-10-26T10:30:20.879Z,97681.13
2022-10-26T10:33:03.854Z,97686.91
2022-10-26T10:35:31.016Z,97687.72
2022-10-26T10:37:58.260Z,97684.03
2022-10-26T10:40:29.598Z,97691.44
2022-10-26T10:43:11.618Z,97678.34
2022-10-26T10:45:39.242Z,97679.59
2022-10-26T10:48:14.393Z,97678.84
2022-10-26T10:50:57.383Z,97686.69
2022-10-26T10:53:31.173Z,97676.44
2022-10-26T10:56:22.936Z,97675.22
2022-10-26T10:58:57.393Z,97666.69
2022-10-26T11:01:38.870Z,97672.25
2022-10-26T11:04:25.706Z,97666.53
2022-10-26T11:06:57.890Z,97662.41
2022-10-26T11:09:30.790Z,97658.72
2022-10-26T11:12:04.095Z,97659.53
2022-10-26T11:14:57.094Z,97660.41
2022-10-26T11:17:33.975Z,97652.56
2022-10-26T11:20:14.933Z,97661.66
2022-10-26T11:23:01.031Z,97653.41
2022-10-26T11:25:56.803Z,97641.84
2022-10-26T11:29:00.289Z,97652.59
2022-10-26T11:31:34.096Z,97659.19
2022-10-26T11:34:11.032Z,97652.16
2022-10-26T11:36:42.593Z,97645.16
2022-10-26T11:39:35.043Z,97647.44
2022-10-26T11:42:16.369Z,97653.41
2022-10-26T11:45:00.016Z,97648.88
2022-10-26T11:47:57.951Z,97651.38
2022-10-26T11:50:35.053Z,97647.22
2022-10-26T11:53:17.227Z,97644.75
2022-10-26T11:55:50.644Z,97649.69
2022-10-26T11:58:18.202Z,97642.06
2022-10-26T12:00:51.019Z,97648.06
2022-10-26T12:03:23.412Z,97650.72
2022-10-26T12:05:52.447Z,97652.16
2022-10-26T12:08:31.361Z,97652.34
2022-10-26T12:14:00.638Z,97646.38
2022-10-26T12:16:36.646Z,97647.00
2022-10-26T12:19:12.272Z,97649.50
2022-10-26T12:21:39.503Z,97643.88
2022-10-26T12:24:29.727Z,97651.16
2022-10-26T12:27:05.812Z,97642.47
2022-10-26T12:29:45.995Z,97650.31
2022-10-26T12:32:31.170Z,97644.72
2022-10-26T12:35:00.321Z,97643.91
2022-10-26T12:37:37.436Z,97642.88
2022-10-26T12:40:35.186Z,97657.53
2022-10-26T12:43:14.603Z,97653.19
2022-10-26T12:45:42.850Z,97646.16
2022-10-26T12:48:46.319Z,97645.34
2022-10-26T12:51:39.687Z,97627.78
2022-10-26T12:54:30.883Z,97650.91
2022-10-26T12:57:11.211Z,97645.75
2022-10-26T12:59:48.976Z,97655.44
2022-10-26T13:02:18.818Z,97648.41
2022-10-26T13:05:19.654Z,97650.38
2022-10-26T13:07:47.508Z,97655.75
2022-10-26T13:10:14.464Z,97651.19
2022-10-26T13:12:53.619Z,97655.69
2022-10-26T13:15:31.464Z,97656.25
2022-10-26T13:18:08.839Z,97653.97
2022-10-26T13:20:38.309Z,97663.44
2022-10-26T13:23:21.160Z,97658.06
2022-10-26T13:26:05.193Z,97658.25
2022-10-26T13:28:44.639Z,97659.66
2022-10-26T13:31:20.690Z,97650.09
2022-10-26T13:33:51.221Z,97657.09
2022-10-26T13:36:37.469Z,97650.41
2022-10-26T13:39:20.970Z,97664.63
2022-10-26T13:41:51.546Z,97669.31
2022-10-26T13:44:50.100Z,97674.69
2022-10-26T13:47:27.640Z,97669.31
2022-10-26T13:49:56.726Z,97674.56
2022-10-26T13:52:38.491Z,97681.75
2022-10-26T13:55:20.696Z,97677.00
2022-10-26T13:58:17.236Z,97675.91
2022-10-26T14:01:14.122Z,97687.88
2022-10-26T14:03:43.234Z,97690.19
2022-10-26T14:06:34.738Z,97693.25
2022-10-26T14:09:11.646Z,97696.28
2022-10-26T14:11:48.406Z,97704.22
2022-10-26T14:14:32.405Z,97706.63
2022-10-26T14:17:00.070Z,97696.16
2022-10-26T14:19:32.944Z,97702.72
2022-10-26T14:22:01.224Z,97707.81
2022-10-26T14:24:46.683Z,97708.75
2022-10-26T14:27:19.631Z,97707.19
2022-10-26T14:30:03.673Z,97709.88
2022-10-26T14:32:37.259Z,97706.94
2022-10-26T14:35:04.834Z,97711.63
2022-10-26T14:37:38.662Z,97715.44
2022-10-26T14:40:09.903Z,97709.38
2022-10-26T14:42:41.946Z,97714.00
2022-10-26T14:45:43.392Z,97716.38
2022-10-26T14:48:23.777Z,97718.75
2022-10-26T14:51:06.429Z,97723.97
2022-10-26T14:53:39.243Z,97729.81
2022-10-26T14:56:21.430Z,97729.66
2022-10-26T14:58:49.320Z,97735.25
2022-10-26T15:01:17.567Z,97735.72
2022-10-26T15:03:45.743Z,97742.50
2022-10-26T15:06:37.657Z,97735.13
2022-10-26T15:09:07.021Z,97742.19
2022-10-26T15:11:35.658Z,97742.56
2022-10-26T15:14:03.286Z,97738.63
2022-10-26T15:16:35.175Z,97745.00
2022-10-26T15:19:12.215Z,97756.13
2022-10-26T15:21:46.101Z,97771.25
2022-10-26T15:24:34.655Z,97766.53
2022-10-26T15:27:12.534Z,97762.03
2022-10-26T15:29:44.193Z,97777.06
2022-10-26T15:32:36.730Z,97779.00
2022-10-26T15:35:20.148Z,97783.56
2022-10-26T15:37:57.063Z,97780.94
2022-10-26T15:41:38.787Z,97788.59
2022-10-26T15:44:46.346Z,97791.75
2022-10-26T15:47:40.167Z,97795.28
2022-10-26T15:53:53.595Z,97810.81
2022-10-26T15:56:29.206Z,97810.69
2022-10-26T15:59:04.115Z,97823.16
2022-10-26T16:01:31.773Z,97829.63
2022-10-26T16:04:04.208Z,97828.44
2022-10-26T16:06:34.534Z,97824.72
2022-10-26T16:09:04.324Z,97832.94
2022-10-26T16:11:31.473Z,97823.25
2022-10-26T16:14:02.781Z,97835.38
2022-10-26T16:16:31.469Z,97837.22
2022-10-26T16:19:18.380Z,97845.59
2022-10-26T16:21:45.809Z,97852.44
2022-10-26T16:24:12.994Z,97852.91
2022-10-26T16:26:39.917Z,97863.47
2022-10-26T16:29:06.947Z,97862.09
2022-10-26T16:31:33.953Z,97866.28
2022-10-26T16:34:03.973Z,97870.41
2022-10-26T16:36:35.002Z,97874.59
2022-10-26T16:41:32.176Z,97885.03
2022-10-26T16:43:59.376Z,97885.59
2022-10-26T16:46:29.678Z,97889.59
2022-10-26T16:48:56.741Z,97898.75
2022-10-26T16:51:29.363Z,97901.81
2022-10-26T16:54:24.365Z,97910.72
2022-10-26T16:56:51.544Z,97902.91
2022-10-26T16:59:18.691Z,97908.97
2022-10-26T17:01:45.677Z,97913.84
2022-10-26T17:04:12.876Z,97915.59
2022-10-26T17:06:39.919Z,97929.59
2022-10-26T17:09:08.872Z,97927.50
2022-10-26T17:11:36.158Z,97925.81
2022-10-26T17:14:14.844Z,97932.72
2022-10-26T17:16:42.852Z,97925.44
2022-10-26T17:19:14.122Z,97931.78
2022-10-26T17:21:41.379Z,97932.00
2022-10-26T17:24:08.796Z,97938.09
2022-10-26T17:26:36.107Z,97937.28
2022-10-26T17:29:03.329Z,97937.53
2022-10-26T17:31:30.464Z,97939.72
2022-10-26T17:33:58.740Z,97938.19
2022-10-26T17:36:26.773Z,97939.06
2022-10-26T17:38:55.580Z,97942.59
2022-10-26T17:41:26.960Z,97948.13
2022-10-26T17:43:56.864Z,97945.28
2022-10-26T17:46:26.289Z,97944.72
2022-10-26T17:48:58.771Z,97951.84
2022-10-26T17:51:27.448Z,97954.13
2022-10-26T17:53:55.206Z,97962.03
2022-10-26T17:56:24.498Z,97957.84
2022-10-26T17:58:53.690Z,97964.47
2022-10-26T18:01:21.372Z,97963.28
2022-10-26T18:03:48.788Z,97956.34
2022-10-26T18:06:17.423Z,97952.75
2022-10-26T18:08:47.441Z,97956.59
2022-10-26T18:11:25.309Z,97974.53
2022-10-26T18:13:54.919Z,97971.94
2022-10-26T18:16:23.256Z,97975.53
2022-10-26T18:19:01.597Z,97980.22
2022-10-26T18:21:32.344Z,97973.41
2022-10-26T18:24:00.268Z,97982.72
2022-10-26T18:26:29.700Z,97985.59
2022-10-26T18:29:01.576Z,97984.44
2022-10-26T18:31:30.569Z,97984.78
2022-10-26T18:34:03.016Z,97987.53
2022-10-26T18:36:31.591Z,97995.78
2022-10-26T18:39:02.495Z,97996.41
2022-10-26T18:41:30.409Z,97999.88
2022-10-26T18:44:00.565Z,97998.28
2022-10-26T18:46:30.785Z,98015.97
2022-10-26T18:49:01.089Z,98017.88
2022-10-26T18:51:37.345Z,98016.06
2022-10-26T18:54:05.711Z,98022.28
2022-10-26T18:56:33.354Z,98021.69
2022-10-26T18:59:01.332Z,98022.63
2022-10-26T19:01:32.487Z,98026.34
2022-10-26T19:04:06.062Z,98038.50
2022-10-26T19:06:35.977Z,98034.53
2022-10-26T19:09:04.961Z,98029.78
2022-10-26T19:11:32.870Z,98032.72
2022-10-26T19:14:00.937Z,98042.63
2022-10-26T19:16:46.328Z,98040.00
2022-10-26T19:19:16.914Z,98045.59
2022-10-26T19:21:45.967Z,98047.41
2022-10-26T19:24:19.456Z,98052.19
2022-10-26T19:26:48.422Z,98052.78
2022-10-26T19:29:17.175Z,98056.22
2022-10-26T19:31:46.451Z,98055.25
2022-10-26T19:34:16.028Z,98057.25
2022-10-26T19:36:45.320Z,98053.91
2022-10-26T19:39:14.408Z,98060.47
2022-10-26T19:41:41.669Z,98064.03
2022-10-26T19:44:10.879Z,98068.34
2022-10-26T19:46:38.325Z,98070.97
2022-10-26T19:49:05.710Z,98067.59
2022-10-26T19:51:33.026Z,98072.16
2022-10-26T19:54:03.925Z,98071.97
2022-10-26T19:56:35.895Z,98076.81
2022-10-26T19:59:04.499Z,98070.03
2022-10-26T20:01:32.278Z,98076.31
2022-10-26T20:04:02.866Z,98077.16
2022-10-26T20:06:38.592Z,98075.59
2022-10-26T20:09:05.973Z,98079.16
2022-10-26T20:11:42.221Z,98074.03
2022-10-26T20:14:10.651Z,98076.97
2022-10-26T20:16:38.072Z,98073.09
2022-10-26T20:19:08.099Z,98084.56
2022-10-26T20:21:35.932Z,98075.97
2022-10-26T20:24:07.850Z,98074.91
2022-10-26T20:26:37.643Z,98081.22
2022-10-26T20:29:05.075Z,98089.19
2022-10-26T20:31:32.637Z,98081.66
2022-10-26T20:34:00.261Z,98090.06
2022-10-26T20:36:27.310Z,98097.81
2022-10-26T20:38:54.665Z,98097.81
2022-10-26T20:41:25.179Z,98096.16
2022-10-26T20:43:55.684Z,98095.53
2022-10-26T20:46:26.942Z,98092.72
2022-10-26T20:48:54.709Z,98096.41
2022-10-26T20:51:38.534Z,98091.78
2022-10-26T20:54:37.104Z,98098.91
2022-10-26T20:57:07.752Z,98089.91
2022-10-26T20:59:48.087Z,98102.19
2022-10-26T21:02:17.654Z,98105.84
2022-10-26T21:04:44.748Z,98103.66
2022-10-26T21:07:11.681Z,98094.94
2022-10-26T21:09:38.766Z,98104.41
2022-10-26T21:12:06.217Z,98104.41
2022-10-26T21:14:39.686Z,98106.72
2022-10-26T21:17:07.900Z,98105.84
2022-10-26T21:19:34.981Z,98110.28
2022-10-26T21:22:02.217Z,98111.94
2022-10-26T21:24:29.408Z,98111.31
2022-10-26T21:26:56.419Z,98117.00
2022-10-26T21:29:24.947Z,98110.78
2022-10-26T21:32:15.894Z,98109.31
2022-10-26T21:34:43.836Z,98102.50
2022-10-26T21:37:11.279Z,98112.25
2022-10-26T21:39:39.251Z,98107.34
2022-10-26T21:42:07.041Z,98103.94
2022-10-26T21:44:40.974Z,98106.75
2022-10-26T21:47:08.936Z,98107.72
2022-10-26T21:49:36.824Z,98101.81
2022-10-26T21:52:03.768Z,98107.72
2022-10-26T21:54:30.641Z,98104.66
2022-10-26T21:56:57.948Z,98116.94
2022-10-26T21:59:28.083Z,98105.59
2022-10-26T22:01:56.100Z,98114.38
2022-10-26T22:04:23.397Z,98116.09
2022-10-26T22:06:50.481Z,98123.53
2022-10-26T22:09:17.761Z,98126.03
2022-10-26T22:11:47.890Z,98119.13
2022-10-26T22:14:16.177Z,98124.47
2022-10-26T22:16:44.969Z,98116.88
2022-10-26T22:19:15.866Z,98117.97
2022-10-26T22:21:43.396Z,98131.91
2022-10-26T22:24:11.444Z,98123.41
2022-10-26T22:26:38.315Z,98126.84
2022-10-26T22:29:05.751Z,98138.06
2022-10-26T22:31:40.277Z,98136.56
2022-10-26T22:34:16.396Z,98137.59
2022-10-26T22:36:47.279Z,98133.44
2022-10-26T22:39:14.830Z,98134.25
2022-10-26T22:41:42.165Z,98133.44
2022-10-26T22:44:13.513Z,98138.75
2022-10-26T22:47:44.926Z,98134.00
2022-10-26T22:53:45.107Z,98148.63
2022-10-26T22:56:15.064Z,98141.91
2022-10-26T22:58:43.562Z,98152.31
2022-10-26T23:01:17.182Z,98148.63
2022-10-26T23:03:44.925Z,98145.09
2022-10-26T23:06:14.227Z,98157.25
2022-10-26T23:08:41.776Z,98154.63
2022-10-26T23:11:12.679Z,98161.66
2022-10-26T23:13:39.921Z,98157.44
2022-10-26T23:16:15.416Z,98154.28
2022-10-26T23:18:42.382Z,98154.19
2022-10-26T23:21:11.195Z,98150.91
2022-10-26T23:23:38.314Z,98160.38
2022-10-26T23:26:08.350Z,98155.97
2022-10-26T23:28:36.636Z,98151.69
2022-10-26T23:31:03.979Z,98150.78
2022-10-26T23:33:31.769Z,98150.97
2022-10-26T23:35:59.389Z,98159.28
2022-10-26T23:38:26.541Z,98158.53
2022-10-26T23:40:58.041Z,98150.78
2022-10-26T23:43:26.457Z,98156.66
2022-10-26T23:45:54.438Z,98155.66
2022-10-26T23:48:21.501Z,98164.53
2022-10-26T23:50:50.719Z,98155.66
2022-10-26T23:53:20.439Z,98157.16
2022-10-26T23:55:48.668Z,98147.63
2022-10-26T23:58:16.777Z,98152.88
